Startpagina
METAR-TAF:

METAR-TAF

Vliegvelden :

Ushuaia, Argentinië

Aeropuerto Internacional Malvinas Argentinas

breedte: 54-48S, lengte: 068-19W, hoogte: 16 m

Actueel weer

Dit bericht is 43 minuten geleden gemaakt, om 00:00 UTC
Wind 14 kt uit het noordwesten
Temperatuur 12°C
Vochtigheid 35%
Druk 988 hPa
Zicht 10 km of meer
Weinig wolken op 4000 ft
Verspreide wolken op 10000 ft

METAR: SAWH 260000Z 32014KT 9999 FEW040 SCT100 12/M03 Q0988

Tijdstip: 21:43 (00:43 UTC)

Verwachting

Dit bericht is 1 uur en het 43 minuten geleden gemaakt, om 23:00 UTC
Verwachting geldig van 26 om 00 UTC tot 26 om 24 UTC
Wind 15 kt uit het noordwesten met uitschieters tot 35 kt
Zicht 10 km of meer
Verspreide wolken op 3000 ft
Gebroken wolken op 9000 ft
Wijzigt naar
van 26 om 15 UTC tot 26 om 17 UTC
Wind 10 kt uit het noorden
Zicht: 6000 m
Verspreide wolken op 3000 ft
Gebroken wolken op 4500 ft
regen

TAF: SAWH 252300Z 2600/2624 32015G35KT 9999 SCT030 BKN090 TX09/2618Z TN04/2611Z BECMG 2615/2617 36010KT 6000 RA SCT030 BKN045

Waarnemingen en weersverwachtingen van meer dan 4000 vliegvelden (METAR en TAF).

De beschikbare stations zijn de gele en rode punten op de kaart.

Ga met uw muis naar het station om de naam te zien.

Klik dan om waarnemingen en weersverwachtingen te zien.

kaart wijzigen: klik op de groene knoppen met een zwart kruis om in te zoomen, op de groene knop met een streepje om uit te zoomen of op de groene pijlen voor aangrenzende kaarten.


METAR-TAF: